createdAt,value
2024-01-05T00:02:36.800Z,15.70
2024-01-05T00:05:21.754Z,14.37
2024-01-05T00:08:07.413Z,14.80
2024-01-05T00:10:52.556Z,14.50
2024-01-05T00:13:37.875Z,13.97
2024-01-05T00:16:24.224Z,14.30
2024-01-05T00:19:09.230Z,13.40
2024-01-05T00:21:54.550Z,12.60
2024-01-05T00:24:39.237Z,13.50
2024-01-05T00:27:25.089Z,12.53
2024-01-05T00:30:11.008Z,12.27
2024-01-05T00:32:56.700Z,12.53
2024-01-05T00:35:42.078Z,11.97
2024-01-05T00:38:26.963Z,11.97
2024-01-05T00:41:11.966Z,10.60
2024-01-05T00:43:57.294Z,10.93
2024-01-05T00:46:42.382Z,11.97
2024-01-05T00:49:27.581Z,11.07
2024-01-05T00:52:13.076Z,11.43
2024-01-05T00:54:58.786Z,10.00
2024-01-05T00:57:43.733Z,10.17
2024-01-05T01:00:28.738Z,9.47
2024-01-05T01:03:14.026Z,10.30
2024-01-05T01:05:59.554Z,9.77
2024-01-05T01:08:44.366Z,9.27
2024-01-05T01:11:29.203Z,8.63
2024-01-05T01:14:14.247Z,8.30
2024-01-05T01:16:59.108Z,8.23
2024-01-05T01:19:44.441Z,7.97
2024-01-05T01:22:29.665Z,8.50
2024-01-05T01:25:14.737Z,8.27
2024-01-05T01:27:59.506Z,9.57
2024-01-05T01:30:44.517Z,8.53
2024-01-05T01:33:30.086Z,9.60
2024-01-05T01:36:15.444Z,9.37
2024-01-05T01:39:00.567Z,9.37
2024-01-05T01:41:45.935Z,9.23
2024-01-05T01:44:30.945Z,8.63
2024-01-05T01:47:16.236Z,8.97
2024-01-05T01:50:01.959Z,9.80
2024-01-05T01:52:48.028Z,8.63
2024-01-05T01:55:33.109Z,9.57
2024-01-05T01:58:20.674Z,9.57
2024-01-05T02:01:07.091Z,8.90
2024-01-05T02:03:52.718Z,9.07
2024-01-05T02:06:38.639Z,8.97
2024-01-05T02:09:24.858Z,7.23
2024-01-05T02:12:09.937Z,7.80
2024-01-05T02:14:55.424Z,8.10
2024-01-05T02:17:40.441Z,7.33
2024-01-05T02:20:25.778Z,6.87
2024-01-05T02:23:21.350Z,7.43
2024-01-05T02:26:06.650Z,7.30
2024-01-05T02:28:51.987Z,7.90
2024-01-05T02:31:37.170Z,7.90
2024-01-05T02:34:22.539Z,7.80
2024-01-05T02:37:08.022Z,7.10
2024-01-05T02:39:53.067Z,7.30
2024-01-05T02:42:39.634Z,7.23
2024-01-05T02:45:24.924Z,7.93
2024-01-05T02:48:10.238Z,7.00
2024-01-05T02:50:55.626Z,7.13
2024-01-05T02:53:40.503Z,6.77
2024-01-05T02:56:25.526Z,7.40
2024-01-05T02:59:10.610Z,7.10
2024-01-05T03:01:55.597Z,6.33
2024-01-05T03:04:43.722Z,6.07
2024-01-05T03:07:28.592Z,6.03
2024-01-05T03:10:13.643Z,6.40
2024-01-05T03:12:58.737Z,5.77
2024-01-05T03:15:43.695Z,6.23
2024-01-05T03:18:28.801Z,5.63
2024-01-05T03:21:14.218Z,5.63
2024-01-05T03:23:59.170Z,6.27
2024-01-05T03:26:44.777Z,5.90
2024-01-05T03:29:30.037Z,6.50
2024-01-05T03:32:15.078Z,6.43
2024-01-05T03:34:59.976Z,6.17
2024-01-05T03:37:44.935Z,5.77
2024-01-05T03:40:29.835Z,6.37
2024-01-05T03:43:14.933Z,6.20
2024-01-05T03:45:59.834Z,6.33
2024-01-05T03:48:45.130Z,6.60
2024-01-05T03:51:30.634Z,6.50
2024-01-05T03:54:16.036Z,6.40
2024-01-05T03:57:01.475Z,6.53
2024-01-05T03:59:46.753Z,6.33
2024-01-05T04:02:31.863Z,7.00
2024-01-05T04:05:16.748Z,7.00
2024-01-05T04:08:02.298Z,6.53
2024-01-05T04:10:47.387Z,6.70
2024-01-05T04:13:32.351Z,6.60
2024-01-05T04:16:17.415Z,7.03
2024-01-05T04:19:02.788Z,6.73
2024-01-05T04:21:48.245Z,7.67
2024-01-05T04:24:33.184Z,6.87
2024-01-05T04:27:18.525Z,7.20
2024-01-05T04:30:03.739Z,6.83
2024-01-05T04:32:49.817Z,6.13
2024-01-05T04:35:35.421Z,6.70
2024-01-05T04:38:20.371Z,6.50
2024-01-05T04:41:05.542Z,6.40
2024-01-05T04:43:50.852Z,6.03
2024-01-05T04:46:35.701Z,6.03
2024-01-05T04:49:20.917Z,6.50
2024-01-05T04:52:06.518Z,6.50
2024-01-05T04:54:51.717Z,6.73
2024-01-05T04:57:36.754Z,6.27
2024-01-05T05:00:21.647Z,6.60
2024-01-05T05:03:06.754Z,5.90
2024-01-05T05:05:52.060Z,6.13
2024-01-05T05:08:37.636Z,5.63
2024-01-05T05:11:22.637Z,5.60
2024-01-05T05:14:07.648Z,4.90
2024-01-05T05:16:52.484Z,5.37
2024-01-05T05:19:37.489Z,5.70
2024-01-05T05:22:22.833Z,5.57
2024-01-05T05:25:08.231Z,5.70
2024-01-05T05:27:53.500Z,6.33
2024-01-05T05:30:38.547Z,6.20
2024-01-05T05:33:23.897Z,7.23
2024-01-05T05:36:09.164Z,6.50
2024-01-05T05:38:54.076Z,7.23
2024-01-05T05:41:39.588Z,7.23
2024-01-05T05:44:24.472Z,6.83
2024-01-05T05:47:10.376Z,6.40
2024-01-05T05:49:55.249Z,7.00
2024-01-05T05:52:41.409Z,6.60
2024-01-05T05:55:26.654Z,7.13
2024-01-05T05:58:11.656Z,7.90
2024-01-05T06:00:56.797Z,7.57
2024-01-05T06:03:42.180Z,7.07
2024-01-05T06:06:27.801Z,7.27
2024-01-05T06:09:12.744Z,7.50
2024-01-05T06:11:57.577Z,8.13
2024-01-05T06:14:42.374Z,8.57
2024-01-05T06:17:27.396Z,10.10
2024-01-05T06:20:12.956Z,9.70
2024-01-05T06:22:57.901Z,8.73
2024-01-05T06:25:43.329Z,8.67
2024-01-05T06:28:28.554Z,9.27
2024-01-05T06:31:15.072Z,8.90
2024-01-05T06:34:03.078Z,8.20
2024-01-05T06:36:48.594Z,8.47
2024-01-05T06:39:33.496Z,8.57
2024-01-05T06:42:18.397Z,8.73
2024-01-05T06:45:03.598Z,8.47
2024-01-05T06:47:48.948Z,8.67
2024-01-05T06:50:37.078Z,9.20
2024-01-05T06:53:22.677Z,8.33
2024-01-05T06:56:07.695Z,8.30
2024-01-05T06:58:52.569Z,7.80
2024-01-05T07:01:37.550Z,8.10
2024-01-05T07:04:22.446Z,8.20
2024-01-05T07:07:07.371Z,66.87
2024-01-05T07:09:52.275Z,8.27
2024-01-05T07:12:37.269Z,8.17
2024-01-05T07:15:22.735Z,8.03
2024-01-05T07:18:07.990Z,8.80
2024-01-05T07:20:53.084Z,8.20
2024-01-05T07:23:38.068Z,8.60
2024-01-05T07:26:22.920Z,8.20
2024-01-05T07:29:07.654Z,8.53
2024-01-05T07:31:52.672Z,7.90
2024-01-05T07:34:37.689Z,8.67
2024-01-05T07:37:22.988Z,8.33
2024-01-05T07:40:08.314Z,7.90
2024-01-05T07:42:53.214Z,7.37
2024-01-05T07:45:38.210Z,6.93
2024-01-05T07:48:23.138Z,6.87
2024-01-05T07:51:08.983Z,7.17
2024-01-05T07:53:54.307Z,7.03
2024-01-05T07:56:39.688Z,6.60
2024-01-05T07:59:24.908Z,6.73
2024-01-05T08:02:10.005Z,7.30
2024-01-05T08:04:55.020Z,6.67
2024-01-05T08:07:39.874Z,7.20
2024-01-05T08:10:24.817Z,7.67
2024-01-05T08:13:09.682Z,6.83
2024-01-05T08:15:54.588Z,6.60
2024-01-05T08:18:40.857Z,7.00
2024-01-05T08:21:26.286Z,8.30
2024-01-05T08:24:11.290Z,8.47
2024-01-05T08:26:56.789Z,7.23
2024-01-05T08:29:42.207Z,7.20
2024-01-05T08:32:27.158Z,6.67
2024-01-05T08:35:12.495Z,6.77
2024-01-05T08:37:57.466Z,7.00
2024-01-05T08:40:42.345Z,6.67
2024-01-05T08:43:27.979Z,6.67
2024-01-05T08:46:12.819Z,6.90
2024-01-05T08:48:57.908Z,7.10
2024-01-05T08:51:44.610Z,6.73
2024-01-05T08:54:30.107Z,6.20
2024-01-05T08:57:15.033Z,5.90
2024-01-05T08:59:59.937Z,6.40
2024-01-05T09:02:44.859Z,6.57
2024-01-05T09:05:29.672Z,6.70
2024-01-05T09:08:15.049Z,6.50
2024-01-05T09:11:00.024Z,5.73
2024-01-05T09:13:45.004Z,6.87
2024-01-05T09:16:30.041Z,6.80
2024-01-05T09:19:14.922Z,6.10
2024-01-05T09:21:59.832Z,6.10
2024-01-05T09:24:44.658Z,6.60
2024-01-05T09:27:29.598Z,6.10
2024-01-05T09:30:14.793Z,5.90
2024-01-05T09:32:59.867Z,5.57
2024-01-05T09:35:44.605Z,6.00
2024-01-05T09:38:29.980Z,6.17
2024-01-05T09:41:14.931Z,6.10
2024-01-05T09:44:01.767Z,5.73
2024-01-05T09:46:46.957Z,5.70
2024-01-05T09:49:35.739Z,6.10
2024-01-05T09:52:21.205Z,5.90
2024-01-05T09:55:07.022Z,5.63
2024-01-05T09:57:52.075Z,5.40
2024-01-05T10:00:39.193Z,5.50
2024-01-05T10:03:25.209Z,5.43
2024-01-05T10:06:10.287Z,4.57
2024-01-05T10:09:00.334Z,4.90
2024-01-05T10:11:45.685Z,4.30
2024-01-05T10:14:30.444Z,4.13
2024-01-05T10:17:15.587Z,4.27
2024-01-05T10:20:16.902Z,3.80
2024-01-05T10:23:05.459Z,5.03
2024-01-05T10:25:51.171Z,3.63
2024-01-05T10:28:36.025Z,3.60
2024-01-05T10:31:21.128Z,3.33
2024-01-05T10:34:08.531Z,3.10
2024-01-05T10:37:03.906Z,3.13
2024-01-05T10:39:50.562Z,3.27
2024-01-05T10:42:35.823Z,3.10
2024-01-05T10:45:21.311Z,3.00
2024-01-05T10:48:08.868Z,3.00
2024-01-05T10:50:56.400Z,2.50
2024-01-05T10:53:43.834Z,2.57
2024-01-05T10:56:30.390Z,2.87
2024-01-05T10:59:15.865Z,2.97
2024-01-05T11:02:03.353Z,3.00
2024-01-05T11:04:57.666Z,2.80
2024-01-05T11:07:44.076Z,2.63
2024-01-05T11:10:58.356Z,3.00
2024-01-05T11:14:10.919Z,2.77
2024-01-05T11:17:02.640Z,2.50
2024-01-05T11:19:55.964Z,2.33
2024-01-05T11:22:47.081Z,2.20
2024-01-05T11:25:32.491Z,2.30
2024-01-05T11:28:38.187Z,1.90
2024-01-05T11:31:47.989Z,2.27
2024-01-05T11:34:35.078Z,1.70
2024-01-05T11:37:29.091Z,1.60
2024-01-05T11:40:34.448Z,1.30
2024-01-05T11:43:32.892Z,1.77
2024-01-05T11:46:20.501Z,1.70
2024-01-05T11:49:06.537Z,1.47
2024-01-05T11:51:51.842Z,2.00
2024-01-05T11:54:36.842Z,1.90
2024-01-05T11:57:21.704Z,1.60
2024-01-05T12:00:07.951Z,1.50
2024-01-05T12:03:01.244Z,1.00
2024-01-05T12:05:51.088Z,1.57
2024-01-05T12:08:36.830Z,1.17
2024-01-05T12:11:22.093Z,1.47
2024-01-05T12:14:06.967Z,1.40
2024-01-05T12:16:51.890Z,1.60
2024-01-05T12:19:37.578Z,1.37
2024-01-05T12:22:22.817Z,1.10
2024-01-05T12:25:07.946Z,1.30
2024-01-05T12:27:53.937Z,1.20
2024-01-05T12:30:39.222Z,0.90
2024-01-05T12:33:28.788Z,0.87
2024-01-05T12:36:25.000Z,0.93
2024-01-05T12:39:14.058Z,0.93
2024-01-05T12:41:59.940Z,0.80
2024-01-05T12:44:45.163Z,1.07
2024-01-05T12:47:30.273Z,0.90
2024-01-05T12:50:26.356Z,0.83
2024-01-05T12:53:22.134Z,0.50
2024-01-05T12:56:14.851Z,0.70
2024-01-05T12:58:59.831Z,0.80
2024-01-05T13:01:44.872Z,0.80
2024-01-05T13:04:41.458Z,0.90
2024-01-05T13:07:27.209Z,0.80
2024-01-05T13:10:12.201Z,0.77
2024-01-05T13:12:57.531Z,0.77
2024-01-05T13:15:42.667Z,0.83
2024-01-05T13:18:28.339Z,0.73
2024-01-05T13:21:13.460Z,1.00
2024-01-05T13:23:58.956Z,0.70
2024-01-05T13:26:43.937Z,0.80
2024-01-05T13:29:28.945Z,0.90
2024-01-05T13:32:14.083Z,0.97
2024-01-05T13:34:59.332Z,2.10
2024-01-05T13:37:44.849Z,2.00
2024-01-05T13:40:29.830Z,1.50
2024-01-05T13:43:14.788Z,1.23
2024-01-05T13:45:59.569Z,1.20
2024-01-05T13:48:44.531Z,1.27
2024-01-05T13:51:29.512Z,1.10
2024-01-05T13:54:14.449Z,1.10
2024-01-05T13:56:59.642Z,1.30
2024-01-05T13:59:45.344Z,1.40
2024-01-05T14:02:30.620Z,1.30
2024-01-05T14:05:15.685Z,1.40
2024-01-05T14:08:01.053Z,1.20
2024-01-05T14:10:45.965Z,1.10
2024-01-05T14:13:32.848Z,1.30
2024-01-05T14:16:18.268Z,1.60
2024-01-05T14:19:03.511Z,1.70
2024-01-05T14:21:48.928Z,1.27
2024-01-05T14:24:33.834Z,1.13
2024-01-05T14:27:18.743Z,1.20
2024-01-05T14:30:04.149Z,1.27
2024-01-05T14:32:49.229Z,0.97
2024-01-05T14:35:34.471Z,1.30
2024-01-05T14:38:19.658Z,1.50
2024-01-05T14:41:05.019Z,1.10
2024-01-05T14:43:50.181Z,1.23
2024-01-05T14:46:35.186Z,1.07
2024-01-05T14:49:20.362Z,1.10
2024-01-05T14:52:05.691Z,0.90
2024-01-05T14:54:51.106Z,1.17
2024-01-05T14:57:36.279Z,1.20
2024-01-05T15:00:21.474Z,1.37
2024-01-05T15:03:07.085Z,0.77
2024-01-05T15:05:52.258Z,1.13
2024-01-05T15:08:37.995Z,0.93
2024-01-05T15:11:23.116Z,1.20
2024-01-05T15:14:08.317Z,1.10
2024-01-05T15:16:53.887Z,1.10
2024-01-05T15:19:38.908Z,1.13
2024-01-05T15:22:24.273Z,1.17
2024-01-05T15:25:09.139Z,1.00
2024-01-05T15:27:56.156Z,1.57
2024-01-05T15:30:41.649Z,1.10
2024-01-05T15:33:26.980Z,1.07
2024-01-05T15:36:18.197Z,1.10
2024-01-05T15:39:03.745Z,1.47
2024-01-05T15:41:48.691Z,1.73
2024-01-05T15:44:33.734Z,2.00
2024-01-05T15:47:18.640Z,2.00
2024-01-05T15:50:04.093Z,2.10
2024-01-05T15:52:49.174Z,1.60
2024-01-05T15:55:37.960Z,1.80
2024-01-05T15:58:26.345Z,2.23
2024-01-05T16:01:12.132Z,1.90
2024-01-05T16:03:57.287Z,2.10
2024-01-05T16:06:42.502Z,2.00
2024-01-05T16:09:27.531Z,2.10
2024-01-05T16:12:13.142Z,2.40
2024-01-05T16:14:58.094Z,2.20
2024-01-05T16:17:43.854Z,2.23
2024-01-05T16:20:29.043Z,2.33
2024-01-05T16:23:13.872Z,2.10
2024-01-05T16:25:58.665Z,2.03
2024-01-05T16:28:43.521Z,1.70
2024-01-05T16:31:28.715Z,1.77
2024-01-05T16:34:14.120Z,1.80
2024-01-05T16:36:59.368Z,1.70
2024-01-05T16:39:45.999Z,1.90
2024-01-05T16:42:31.771Z,2.30
2024-01-05T16:45:16.651Z,2.73
2024-01-05T16:48:01.678Z,2.87
2024-01-05T16:50:47.193Z,2.40
2024-01-05T16:53:32.387Z,2.27
2024-01-05T16:56:18.974Z,2.20
2024-01-05T16:59:04.250Z,2.20
2024-01-05T17:01:49.166Z,1.80
2024-01-05T17:04:34.208Z,1.50
2024-01-05T17:07:19.702Z,1.50
2024-01-05T17:10:04.844Z,2.00
2024-01-05T17:12:50.229Z,1.63
2024-01-05T17:15:35.331Z,1.90
2024-01-05T17:18:22.862Z,1.90
2024-01-05T17:21:09.567Z,1.80
2024-01-05T17:23:54.290Z,2.23
2024-01-05T17:26:39.910Z,2.10
2024-01-05T17:29:25.118Z,2.27
2024-01-05T17:32:10.050Z,2.27
2024-01-05T17:34:55.022Z,2.90
2024-01-05T17:37:40.370Z,2.70
2024-01-05T17:40:25.306Z,4.97
2024-01-05T17:43:10.211Z,3.67
2024-01-05T17:45:55.416Z,3.00
2024-01-05T17:48:40.365Z,2.90
2024-01-05T17:51:25.829Z,2.40
2024-01-05T17:54:11.426Z,2.03
2024-01-05T17:56:57.121Z,2.00
2024-01-05T17:59:42.372Z,1.63
2024-01-05T18:02:27.111Z,2.00
2024-01-05T18:05:12.171Z,1.70
2024-01-05T18:07:57.099Z,2.07
2024-01-05T18:10:41.976Z,1.97
2024-01-05T18:13:26.801Z,1.97
2024-01-05T18:16:20.668Z,1.80
2024-01-05T18:19:06.738Z,2.57
2024-01-05T18:21:51.640Z,2.20
2024-01-05T18:24:36.981Z,2.20
2024-01-05T18:27:22.395Z,2.50
2024-01-05T18:30:08.807Z,2.27
2024-01-05T18:32:54.242Z,2.23
2024-01-05T18:35:39.366Z,2.70
2024-01-05T18:38:24.228Z,2.53
2024-01-05T18:41:11.402Z,2.80
2024-01-05T18:43:58.705Z,2.70
2024-01-05T18:46:44.035Z,2.70
2024-01-05T18:49:29.609Z,2.43
2024-01-05T18:52:14.859Z,2.53
2024-01-05T18:54:59.743Z,2.50
2024-01-05T18:57:44.905Z,2.83
2024-01-05T19:00:30.255Z,3.30
2024-01-05T19:03:15.292Z,3.50
2024-01-05T19:06:00.092Z,3.97
2024-01-05T19:08:45.069Z,4.00
2024-01-05T19:11:30.092Z,3.80
2024-01-05T19:14:15.065Z,4.10
2024-01-05T19:17:00.080Z,4.80
2024-01-05T19:19:45.061Z,5.00
2024-01-05T19:22:30.432Z,3.90
2024-01-05T19:25:15.783Z,4.37
2024-01-05T19:28:00.689Z,3.93
2024-01-05T19:30:45.653Z,4.90
2024-01-05T19:33:31.310Z,4.73
2024-01-05T19:36:16.567Z,4.77
2024-01-05T19:39:01.363Z,4.70
2024-01-05T19:41:47.208Z,4.87
2024-01-05T19:44:32.038Z,5.00
2024-01-05T19:47:16.950Z,5.30
2024-01-05T19:50:01.932Z,5.67
2024-01-05T19:52:47.246Z,5.53
2024-01-05T19:55:32.311Z,5.50
2024-01-05T19:58:17.258Z,6.20
2024-01-05T20:01:02.519Z,6.67
2024-01-05T20:03:47.898Z,6.43
2024-01-05T20:06:33.446Z,6.33
2024-01-05T20:09:19.357Z,5.13
2024-01-05T20:12:05.024Z,6.20
2024-01-05T20:14:50.225Z,6.13
2024-01-05T20:17:34.987Z,6.53
2024-01-05T20:20:20.004Z,5.80
2024-01-05T20:23:04.872Z,6.33
2024-01-05T20:25:49.886Z,6.27
2024-01-05T20:28:34.884Z,6.47
2024-01-05T20:31:20.576Z,6.63
2024-01-05T20:34:05.955Z,7.13
2024-01-05T20:36:51.206Z,7.57
2024-01-05T20:39:36.179Z,7.53
2024-01-05T20:42:21.184Z,8.40
2024-01-05T20:45:07.172Z,7.07
2024-01-05T20:47:52.206Z,7.57
2024-01-05T20:50:36.963Z,7.27
2024-01-05T20:53:22.001Z,8.27
2024-01-05T20:56:07.140Z,7.80
2024-01-05T20:58:52.219Z,7.53
2024-01-05T21:01:41.363Z,7.70
2024-01-05T21:04:26.712Z,7.70
2024-01-05T21:07:12.172Z,8.00
2024-01-05T21:09:57.597Z,8.73
2024-01-05T21:12:42.522Z,8.77
2024-01-05T21:15:27.934Z,8.57
2024-01-05T21:18:13.277Z,9.30
2024-01-05T21:21:01.093Z,9.67
2024-01-05T21:23:47.852Z,9.83
2024-01-05T21:26:32.958Z,9.57
2024-01-05T21:29:17.964Z,9.10
2024-01-05T21:32:02.908Z,9.60
2024-01-05T21:34:48.023Z,10.33
2024-01-05T21:37:33.245Z,9.60
2024-01-05T21:40:18.253Z,10.27
2024-01-05T21:43:03.168Z,10.33
2024-01-05T21:45:48.295Z,10.90
2024-01-05T21:48:33.688Z,11.67
2024-01-05T21:51:19.019Z,11.63
2024-01-05T21:54:04.607Z,11.83
2024-01-05T21:56:49.665Z,11.90
2024-01-05T21:59:34.931Z,12.17
2024-01-05T22:02:20.031Z,12.87
2024-01-05T22:05:05.063Z,13.30
2024-01-05T22:07:50.159Z,12.73
2024-01-05T22:10:35.166Z,13.07
2024-01-05T22:13:20.738Z,14.20
2024-01-05T22:16:06.630Z,13.67
2024-01-05T22:18:51.755Z,14.20
2024-01-05T22:21:37.151Z,15.67
2024-01-05T22:24:22.468Z,15.17
2024-01-05T22:27:07.488Z,16.63
2024-01-05T22:29:52.800Z,16.53
2024-01-05T22:32:39.499Z,16.60
2024-01-05T22:35:24.773Z,16.07
2024-01-05T22:38:09.801Z,15.27
2024-01-05T22:40:55.284Z,16.70
2024-01-05T22:43:41.717Z,17.57
2024-01-05T22:46:26.698Z,19.87
2024-01-05T22:49:11.762Z,20.17
2024-01-05T22:51:57.111Z,21.63
2024-01-05T22:54:42.206Z,21.27
2024-01-05T22:57:27.601Z,22.43
2024-01-05T23:00:13.096Z,21.27
2024-01-05T23:02:57.971Z,20.77
2024-01-05T23:05:42.890Z,21.03
2024-01-05T23:08:28.335Z,21.03
2024-01-05T23:11:13.323Z,20.10
2024-01-05T23:13:58.266Z,20.93
2024-01-05T23:16:43.120Z,19.03
2024-01-05T23:19:28.688Z,19.57
2024-01-05T23:22:14.098Z,20.20
2024-01-05T23:24:59.056Z,18.90
2024-01-05T23:27:44.048Z,20.40
2024-01-05T23:30:28.978Z,19.50
2024-01-05T23:33:14.568Z,20.13
2024-01-05T23:36:00.775Z,20.07
2024-01-05T23:38:45.907Z,20.03
2024-01-05T23:41:30.857Z,19.90
2024-01-05T23:44:15.839Z,20.00
2024-01-05T23:47:01.431Z,18.37
2024-01-05T23:49:46.617Z,15.20
2024-01-05T23:52:31.538Z,15.27
2024-01-05T23:55:16.628Z,13.57
2024-01-05T23:58:01.980Z,14.07
